M I D A S
Marine Information and Data Acquisition System
Tripno 707 of the Zeeleeuw from 2004-05-04 07:46:19 to 2004-05-04 12:57:40
Back to CruiseResearch ActivitiesStationsMapUnderway DataData graphs

EquipmentUnitsComment
TimeDGPSUTC
LatitudeDGPSDM.mWGS84
LongitudeDGPSDM.mWGS84
HeadingGyrodeg 
SOGDGPSknotsSpeed over ground
COGDGPSdegCourse over ground
DepthEcho soundermeters200 kHz
Missing or incorrect values are displayed as -999
Navigation data collected by the RV Zeeleeuw from 2004-05-04 07:46:19 to 2004-05-04 12:57:40
                                                                                    Next 1000 lines
Time Latitude Longitude Heading SOG COG Depth
2004-05-04 07:46:26 51°18.018 2°41.971 287.5 14.7 277 23.5
2004-05-04 07:46:32 51°18.02 2°41.932 286.2 14.7 276 23.4
2004-05-04 07:46:36 51°18.022 2°41.906 285.2 14.7 276 23.2
2004-05-04 07:46:41 51°18.024 2°41.874 284.5 14.7 276 23.2
2004-05-04 07:46:46 51°18.026 2°41.841 284.1 14.8 275 23.1
2004-05-04 07:46:51 51°18.028 2°41.809 284.1 14.7 275 23
2004-05-04 07:46:56 51°18.03 2°41.777 283.6 14.7 275 23
2004-05-04 07:47:00 51°18.031 2°41.751 283.5 14.7 275 22.7
2004-05-04 07:47:06 51°18.033 2°41.712 283.7 14.7 275 22.8
2004-05-04 07:47:12 51°18.035 2°41.673 283.9 14.8 275 22.9
2004-05-04 07:47:17 51°18.037 2°41.64 283.7 14.8 275 22.6
2004-05-04 07:47:20 51°18.039 2°41.621 284 14.7 276 22.7
2004-05-04 07:47:26 51°18.041 2°41.582 284.5 14.8 276 22.5
2004-05-04 07:47:32 51°18.043 2°41.543 284.4 14.7 275 22.5
2004-05-04 07:47:36 51°18.045 2°41.517 284.5 14.8 276 22.2
2004-05-04 07:47:42 51°18.047 2°41.478 284.5 14.8 276 21.8
2004-05-04 07:47:47 51°18.049 2°41.445 284.7 14.8 276 21.7
2004-05-04 07:47:52 51°18.052 2°41.413 284.7 14.7 276 22.1
2004-05-04 07:47:56 51°18.053 2°41.387 285.1 14.8 276 21.9
2004-05-04 07:48:01 51°18.055 2°41.354 284.9 14.8 276 21.3
2004-05-04 07:48:06 51°18.058 2°41.322 285.1 14.8 276 19.7
2004-05-04 07:48:12 51°18.06 2°41.283 285.2 14.7 275 21
2004-05-04 07:48:16 51°18.061 2°41.257 284.2 14.7 275 21.1
2004-05-04 07:48:20 51°18.063 2°41.231 284.5 14.7 275 20.5
2004-05-04 07:48:26 51°18.065 2°41.192 284.8 14.7 275 20.1
2004-05-04 07:48:32 51°18.067 2°41.153 285.5 14.7 276 18.8
2004-05-04 07:48:36 51°18.069 2°41.127 285.7 14.7 277 20.3
2004-05-04 07:48:41 51°18.071 2°41.095 285.5 14.7 276 20.2
2004-05-04 07:48:46 51°18.073 2°41.062 285.4 14.7 276 19.7
2004-05-04 07:48:52 51°18.076 2°41.024 285.2 14.7 277 18.3
2004-05-04 07:48:57 51°18.078 2°40.992 285.2 14.6 276 16.8
2004-05-04 07:49:02 51°18.081 2°40.959 285.6 14.6 276 18
2004-05-04 07:49:06 51°18.082 2°40.934 285.8 14.7 277 17.1
2004-05-04 07:49:12 51°18.085 2°40.895 285.3 14.7 276 16.4
2004-05-04 07:49:17 51°18.087 2°40.863 285.5 14.7 276 16.5
2004-05-04 07:49:22 51°18.089 2°40.83 285.3 14.7 276 14.7
2004-05-04 07:49:26 51°18.091 2°40.805 285.7 14.7 277 16.5
2004-05-04 07:49:32 51°18.094 2°40.766 286.2 14.7 278 16.5
2004-05-04 07:49:36 51°18.097 2°40.74 286.1 14.7 278 14.3
2004-05-04 07:49:41 51°18.099 2°40.707 286.6 14.8 276 16.3
2004-05-04 07:49:47 51°18.103 2°40.669 285.9 14.7 279 15.4
2004-05-04 07:49:52 51°18.105 2°40.637 286.6 14.7 278 14.8
2004-05-04 07:49:57 51°18.108 2°40.605 286.6 14.7 277 16.2
2004-05-04 07:50:02 51°18.111 2°40.572 285.8 14.7 278 15.3
2004-05-04 07:50:06 51°18.113 2°40.547 286.2 14.7 278 17
2004-05-04 07:50:10 51°18.115 2°40.521 286.4 14.7 277 17.9
2004-05-04 07:50:16 51°18.119 2°40.482 286.1 14.7 278 18.2
2004-05-04 07:50:21 51°18.122 2°40.45 285.9 14.7 278 18.9
2004-05-04 07:50:26 51°18.124 2°40.418 286 14.7 277 16.9
2004-05-04 07:50:32 51°18.128 2°40.379 285.9 14.7 278 17.7
2004-05-04 07:50:37 51°18.13 2°40.347 285.9 14.7 278 17.9
2004-05-04 07:50:42 51°18.133 2°40.315 285.8 14.7 278 17.6
2004-05-04 07:50:46 51°18.136 2°40.289 286.6 14.7 278 18.1
2004-05-04 07:50:52 51°18.139 2°40.25 286.1 14.7 277 18.3
2004-05-04 07:50:56 51°18.141 2°40.225 285.9 14.7 278 18.1
2004-05-04 07:51:01 51°18.144 2°40.193 285.8 14.7 279 18
2004-05-04 07:51:06 51°18.147 2°40.161 286.3 14.6 279 17.2
2004-05-04 07:51:12 51°18.151 2°40.122 286.6 14.6 279 16.9
2004-05-04 07:51:16 51°18.154 2°40.097 286 14.5 278 16.3
2004-05-04 07:51:22 51°18.157 2°40.059 286.1 14.6 279 10.4
2004-05-04 07:51:26 51°18.16 2°40.033 286.2 14.4 278 12.6
2004-05-04 07:51:32 51°18.164 2°39.996 285.9 14.3 279 13.7
2004-05-04 07:51:37 51°18.166 2°39.964 286.4 14.4 278 11.9
2004-05-04 07:51:42 51°18.17 2°39.932 285.9 14.5 279 14.7
2004-05-04 07:51:47 51°18.173 2°39.9 286.1 14.7 279 18.2
2004-05-04 07:51:52 51°18.176 2°39.868 286.4 14.7 279 20.7
2004-05-04 07:51:56 51°18.179 2°39.842 286.5 14.7 279 22.6
2004-05-04 07:52:02 51°18.183 2°39.804 285.9 14.7 279 23.8
2004-05-04 07:52:07 51°18.186 2°39.772 286.2 14.7 278 24.7
2004-05-04 07:52:12 51°18.189 2°39.74 285.7 14.6 278 25.1
2004-05-04 07:52:17 51°18.192 2°39.708 285.5 14.6 278 25.5
2004-05-04 07:52:22 51°18.195 2°39.676 285.6 14.5 279 25.6
2004-05-04 07:52:27 51°18.198 2°39.644 285.6 14.5 278 25.7
2004-05-04 07:52:32 51°18.201 2°39.612 285.9 14.5 279 25.8
2004-05-04 07:52:37 51°18.204 2°39.581 286 14.5 279 25.9
2004-05-04 07:52:42 51°18.207 2°39.549 286.2 14.5 278 26
2004-05-04 07:52:46 51°18.209 2°39.524 285.9 14.5 278 26
2004-05-04 07:52:52 51°18.212 2°39.486 285.9 14.5 279 26.2
2004-05-04 07:52:57 51°18.215 2°39.455 285.8 14.4 279 26.1
2004-05-04 07:53:02 51°18.218 2°39.423 285.9 14.4 278 26.1
2004-05-04 07:53:07 51°18.221 2°39.391 286.2 14.5 279 26
2004-05-04 07:53:12 51°18.224 2°39.36 286 14.5 278 25.8
2004-05-04 07:53:16 51°18.226 2°39.334 285.9 14.4 279 25.8
2004-05-04 07:53:21 51°18.229 2°39.303 286.1 14.5 278 25.4
2004-05-04 07:53:26 51°18.232 2°39.271 286.2 14.4 278 25.6
2004-05-04 07:53:32 51°18.235 2°39.233 285.9 14.4 278 25.9
2004-05-04 07:53:36 51°18.238 2°39.208 285.9 14.4 279 25.6
2004-05-04 07:53:41 51°18.24 2°39.177 286.5 14.4 278 25.1
2004-05-04 07:53:47 51°18.244 2°39.139 286.6 14.4 279 25.4
2004-05-04 07:53:52 51°18.247 2°39.107 286.2 14.4 279 25.1
2004-05-04 07:53:57 51°18.25 2°39.076 286.1 14.4 279 25.4
2004-05-04 07:54:01 51°18.252 2°39.05 286.3 14.4 277 25.4
2004-05-04 07:54:06 51°18.255 2°39.019 285.6 14.4 278 25.5
2004-05-04 07:54:12 51°18.258 2°38.981 285.6 14.4 278 25.5
2004-05-04 07:54:16 51°18.261 2°38.956 285.8 14.4 278 25.6
2004-05-04 07:54:21 51°18.263 2°38.924 285.9 14.3 278 25.6
2004-05-04 07:54:26 51°18.266 2°38.893 286.5 14.3 278 25.8
2004-05-04 07:54:32 51°18.269 2°38.855 286.2 14.3 278 25.9
2004-05-04 07:54:37 51°18.272 2°38.824 285.9 14.4 278 26.1
2004-05-04 07:54:42 51°18.275 2°38.792 286.3 14.4 278 26.3
2004-05-04 07:54:47 51°18.277 2°38.76 286.3 14.5 278 26.3
2004-05-04 07:54:52 51°18.28 2°38.729 286.3 14.5 278 26.3
2004-05-04 07:54:57 51°18.283 2°38.697 286.6 14.5 278 26.3
2004-05-04 07:55:01 51°18.285 2°38.672 286.5 14.5 278 26.3
2004-05-04 07:55:06 51°18.288 2°38.64 286.3 14.5 278 26.4
2004-05-04 07:55:12 51°18.291 2°38.603 286.1 14.4 278 26.4
2004-05-04 07:55:17 51°18.294 2°38.571 286.8 14.4 278 26.5
2004-05-04 07:55:22 51°18.297 2°38.54 286.8 14.4 278 26.6
2004-05-04 07:55:27 51°18.3 2°38.508 286.3 14.3 278 26.6
2004-05-04 07:55:32 51°18.302 2°38.477 286.6 14.3 278 26.6
2004-05-04 07:55:36 51°18.305 2°38.452 286.6 14.4 277 26.6
2004-05-04 07:55:41 51°18.307 2°38.42 286.1 14.4 277 26.4
2004-05-04 07:55:46 51°18.309 2°38.388 285.8 14.5 277 26.2
2004-05-04 07:55:52 51°18.312 2°38.35 286.1 14.4 277 26.3
2004-05-04 07:55:57 51°18.314 2°38.319 286.2 14.5 276 25.8
2004-05-04 07:56:02 51°18.317 2°38.287 285.3 14.6 277 25.8
2004-05-04 07:56:07 51°18.319 2°38.255 285.7 14.5 277 25.9
2004-05-04 07:56:12 51°18.321 2°38.223 285.6 14.5 276 25.7
2004-05-04 07:56:17 51°18.324 2°38.192 285.3 14.4 277 25.8
2004-05-04 07:56:22 51°18.326 2°38.16 285.9 14.3 277 25.6
2004-05-04 07:56:26 51°18.328 2°38.135 286.5 14.4 277 25.5
2004-05-04 07:56:31 51°18.33 2°38.103 286.2 14.4 276 25.3
2004-05-04 07:56:36 51°18.333 2°38.071 285.9 14.5 276 25.5
2004-05-04 07:56:42 51°18.335 2°38.033 286.3 14.6 276 24.8
2004-05-04 07:56:47 51°18.337 2°38.001 285.9 14.6 275 25
2004-05-04 07:56:52 51°18.339 2°37.968 285.1 14.6 276 25.4
2004-05-04 07:56:57 51°18.342 2°37.937 285.6 14.5 279 25.1
2004-05-04 07:57:02 51°18.344 2°37.905 287 14.4 277 25
2004-05-04 07:57:06 51°18.347 2°37.88 286.6 14.4 278 24.2
2004-05-04 07:57:12 51°18.349 2°37.842 286.4 14.3 277 24.6
2004-05-04 07:57:16 51°18.351 2°37.817 286.4 14.5 276 23.8
2004-05-04 07:57:21 51°18.354 2°37.785 286.4 14.5 277 23.5
2004-05-04 07:57:26 51°18.356 2°37.753 286.1 14.6 276 23.4
2004-05-04 07:57:32 51°18.358 2°37.715 286.6 14.5 277 23.9
2004-05-04 07:57:37 51°18.361 2°37.683 286.5 14.6 276 23
2004-05-04 07:57:42 51°18.363 2°37.651 286.4 14.6 277 23.4
2004-05-04 07:57:47 51°18.366 2°37.619 286.8 14.6 277 22.8
2004-05-04 07:57:52 51°18.368 2°37.587 287.2 14.6 277 22.4
2004-05-04 07:57:57 51°18.371 2°37.554 286.6 14.6 277 21.9
2004-05-04 07:58:02 51°18.373 2°37.523 286.5 14.5 277 22.4
2004-05-04 07:58:07 51°18.375 2°37.49 286.7 14.6 276 21.9
2004-05-04 07:58:12 51°18.378 2°37.458 286.5 14.6 277 21.8
2004-05-04 07:58:17 51°18.38 2°37.427 286.4 14.5 278 21.5
2004-05-04 07:58:21 51°18.383 2°37.401 287 14.5 278 20.4
2004-05-04 07:58:26 51°18.385 2°37.369 287.4 14.5 278 20.5
2004-05-04 07:58:32 51°18.388 2°37.331 287.4 14.7 277 21.1
2004-05-04 07:58:37 51°18.39 2°37.298 286.6 14.7 276 21
2004-05-04 07:58:42 51°18.393 2°37.266 286.2 14.7 277 19.4
2004-05-04 07:58:47 51°18.395 2°37.234 286.2 14.7 277 19.9
2004-05-04 07:58:52 51°18.398 2°37.201 286.4 14.8 277 18.3
2004-05-04 07:58:57 51°18.4 2°37.169 286.5 14.7 277 19.9
2004-05-04 07:59:02 51°18.403 2°37.136 286.6 14.8 278 19.6
2004-05-04 07:59:06 51°18.405 2°37.111 286.2 14.7 277 19.2
2004-05-04 07:59:12 51°18.408 2°37.072 287.2 14.7 277 19.1
2004-05-04 07:59:17 51°18.41 2°37.039 286.1 14.7 276 17.7
2004-05-04 07:59:22 51°18.413 2°37.007 285.9 14.7 277 19.1
2004-05-04 07:59:26 51°18.414 2°36.981 286.6 14.7 277 18.4
2004-05-04 07:59:30 51°18.417 2°36.955 286.2 14.8 277 17.8
2004-05-04 07:59:37 51°18.42 2°36.91 285.9 14.7 276 17.2
2004-05-04 07:59:41 51°18.422 2°36.884 285.9 14.7 278 17.2
2004-05-04 07:59:46 51°18.425 2°36.852 286.3 14.7 278 15.3
2004-05-04 07:59:52 51°18.428 2°36.813 287 14.7 277 16.6
2004-05-04 07:59:57 51°18.431 2°36.781 286.5 14.7 277 15.4
2004-05-04 08:00:02 51°18.433 2°36.748 286.2 14.7 278 15.3
2004-05-04 08:00:06 51°18.436 2°36.722 286.8 14.7 278 15.8
2004-05-04 08:00:12 51°18.439 2°36.684 286.5 14.8 278 12.8
2004-05-04 08:00:17 51°18.442 2°36.651 286.3 14.7 278 16.9
2004-05-04 08:00:22 51°18.445 2°36.619 286.2 14.8 278 18.1
2004-05-04 08:00:27 51°18.447 2°36.586 286.6 14.8 278 16.2
2004-05-04 08:00:32 51°18.45 2°36.553 286.7 14.9 278 17
2004-05-04 08:00:37 51°18.453 2°36.521 286 14.9 278 18.5
2004-05-04 08:00:42 51°18.456 2°36.488 286.1 14.8 278 19.2
2004-05-04 08:00:47 51°18.459 2°36.456 286.7 14.8 279 18.8
2004-05-04 08:00:52 51°18.462 2°36.423 286.9 14.8 279 19.3
2004-05-04 08:00:56 51°18.464 2°36.397 286.3 14.8 278 18.1
2004-05-04 08:01:01 51°18.467 2°36.365 286.4 14.9 278 19.2
2004-05-04 08:01:07 51°18.471 2°36.326 286.3 14.8 278 20.8
2004-05-04 08:01:12 51°18.473 2°36.293 286.3 14.9 277 22
2004-05-04 08:01:17 51°18.476 2°36.261 286.1 14.7 277 20.4
2004-05-04 08:01:22 51°18.476 2°36.228 283.7 14.8 273 20.2
2004-05-04 08:01:27 51°18.477 2°36.196 280.5 14.8 272 21.7
2004-05-04 08:01:32 51°18.477 2°36.163 278.3 14.7 271 23.3
2004-05-04 08:01:37 51°18.476 2°36.13 276.5 14.7 268 21.6
2004-05-04 08:01:42 51°18.476 2°36.098 274.8 14.7 268 21.4
2004-05-04 08:01:45 51°18.475 2°36.078 274.6 14.8 267 23.1
2004-05-04 08:01:51 51°18.474 2°36.039 274.1 14.8 267 23.1
2004-05-04 08:01:57 51°18.472 2°36 273 14.8 266 23.6
2004-05-04 08:02:02 51°18.471 2°35.968 272.7 14.7 266 21.2
2004-05-04 08:02:07 51°18.469 2°35.936 272.7 14.7 266 22.4
2004-05-04 08:02:12 51°18.467 2°35.903 272.7 14.7 265 23.2
2004-05-04 08:02:17 51°18.465 2°35.871 270.9 14.7 262 24.2
2004-05-04 08:02:21 51°18.462 2°35.845 268.3 14.7 261 24.9
2004-05-04 08:02:26 51°18.458 2°35.813 266.8 14.7 260 24.8
2004-05-04 08:02:32 51°18.453 2°35.775 265.4 14.7 259 24.7
2004-05-04 08:02:36 51°18.45 2°35.749 263.5 14.7 258 25.5
2004-05-04 08:02:41 51°18.446 2°35.718 263.4 14.7 258 26.3
2004-05-04 08:02:46 51°18.441 2°35.686 262.2 14.8 257 20.9
2004-05-04 08:02:52 51°18.435 2°35.647 262.5 14.8 256 21.4
2004-05-04 08:02:56 51°18.431 2°35.622 261.7 14.9 256 22.4
2004-05-04 08:03:01 51°18.426 2°35.59 261.5 14.9 257 23.8
2004-05-04 08:03:07 51°18.421 2°35.551 262.1 14.9 257 25.4
2004-05-04 08:03:12 51°18.416 2°35.519 262.3 14.9 257 26.4
2004-05-04 08:03:16 51°18.412 2°35.494 262.9 14.9 257 26.5
2004-05-04 08:03:22 51°18.407 2°35.455 263 14.8 257 26.7
2004-05-04 08:03:27 51°18.403 2°35.423 262.7 14.7 258 26.6
2004-05-04 08:03:32 51°18.399 2°35.391 263.3 14.7 258 26.7
2004-05-04 08:03:37 51°18.394 2°35.359 263.6 14.8 257 26.8
2004-05-04 08:03:42 51°18.389 2°35.328 262.7 14.8 257 26.8
2004-05-04 08:03:45 51°18.387 2°35.308 262.5 14.8 257 26.8
2004-05-04 08:03:52 51°18.381 2°35.264 262.8 14.8 258 26.7
2004-05-04 08:03:57 51°18.376 2°35.232 262.9 14.8 257 24.3
2004-05-04 08:04:02 51°18.372 2°35.199 263 14.9 257 25.1
2004-05-04 08:04:06 51°18.368 2°35.174 263.1 14.9 257 24.5
2004-05-04 08:04:12 51°18.363 2°35.135 263.2 14.9 257 24.8
2004-05-04 08:04:17 51°18.358 2°35.103 263.4 14.9 258 25.5
2004-05-04 08:04:22 51°18.354 2°35.071 263.5 14.9 257 25.5
2004-05-04 08:04:26 51°18.35 2°35.045 263.2 15 258 25.5
2004-05-04 08:04:32 51°18.345 2°35.006 263.1 15 257 25.6
2004-05-04 08:04:37 51°18.34 2°34.974 263 15 258 26.2
2004-05-04 08:04:41 51°18.337 2°34.948 263.6 14.9 258 26.2
2004-05-04 08:04:46 51°18.333 2°34.915 263.8 14.9 259 26.3
2004-05-04 08:04:52 51°18.328 2°34.877 264.1 15 258 25.8
2004-05-04 08:04:56 51°18.325 2°34.851 263.7 14.9 259 25.9
2004-05-04 08:05:00 51°18.321 2°34.825 263.6 14.9 258 26
2004-05-04 08:05:07 51°18.315 2°34.779 263.6 14.9 258 26.5
2004-05-04 08:05:12 51°18.311 2°34.748 263.4 14.9 258 27
2004-05-04 08:05:16 51°18.307 2°34.722 263.5 14.9 258 26
2004-05-04 08:05:21 51°18.303 2°34.689 263.3 15 258 26.7
2004-05-04 08:05:26 51°18.298 2°34.657 263.2 14.9 257 27.1
2004-05-04 08:05:32 51°18.293 2°34.618 263.4 14.9 258 27
2004-05-04 08:05:37 51°18.289 2°34.586 263.6 14.9 258 25.3
2004-05-04 08:05:42 51°18.285 2°34.554 264.1 14.9 258 25.5
2004-05-04 08:05:46 51°18.281 2°34.528 263.4 14.9 258 25.3
2004-05-04 08:05:52 51°18.276 2°34.49 263 14.8 259 25.6
2004-05-04 08:05:57 51°18.272 2°34.457 263.8 14.8 258 26.6
2004-05-04 08:06:02 51°18.267 2°34.425 264.1 14.9 257 26
2004-05-04 08:06:07 51°18.263 2°34.393 263.4 14.9 258 26.7
2004-05-04 08:06:12 51°18.259 2°34.361 263.6 14.9 258 27.2
2004-05-04 08:06:17 51°18.255 2°34.328 263.5 14.9 258 23.7
2004-05-04 08:06:22 51°18.251 2°34.296 263.9 14.9 258 23.8
2004-05-04 08:06:26 51°18.247 2°34.271 263.7 14.9 257 24.5
2004-05-04 08:06:32 51°18.242 2°34.232 263.3 14.9 258 24.9
2004-05-04 08:06:37 51°18.238 2°34.199 264.1 14.9 261 25.9
2004-05-04 08:06:41 51°18.236 2°34.173 266.2 14.9 263 26.2
2004-05-04 08:06:47 51°18.234 2°34.134 269.1 14.8 266 24.2
2004-05-04 08:06:52 51°18.232 2°34.101 271.1 14.8 266 22.9
2004-05-04 08:06:57 51°18.231 2°34.069 272.2 14.8 266 23.6
2004-05-04 08:07:02 51°18.23 2°34.036 272.8 14.8 267 24.6
2004-05-04 08:07:06 51°18.228 2°34.01 273.3 14.8 266 23.6
2004-05-04 08:07:12 51°18.227 2°33.971 273.6 14.8 267 24.8
2004-05-04 08:07:17 51°18.227 2°33.938 274 14.8 267 21.2
2004-05-04 08:07:20 51°18.226 2°33.918 274.5 14.7 267 24.5
2004-05-04 08:07:26 51°18.225 2°33.879 273.7 14.7 268 24.6
2004-05-04 08:07:32 51°18.223 2°33.84 274.3 14.7 267 22
2004-05-04 08:07:37 51°18.222 2°33.808 274.1 14.7 268 23.7
2004-05-04 08:07:42 51°18.222 2°33.775 273.9 14.7 268 24.4
2004-05-04 08:07:46 51°18.221 2°33.749 274.6 14.7 268 23.1
2004-05-04 08:07:52 51°18.22 2°33.711 274.2 14.7 267 23
2004-05-04 08:07:57 51°18.219 2°33.678 273.9 14.6 268 23.5
2004-05-04 08:08:02 51°18.218 2°33.646 274 14.6 267 19.5
2004-05-04 08:08:06 51°18.218 2°33.62 274.2 14.6 267 22.9
2004-05-04 08:08:12 51°18.216 2°33.581 274.2 14.7 268 22.2
2004-05-04 08:08:17 51°18.216 2°33.548 274.2 14.7 268 20.3
2004-05-04 08:08:22 51°18.215 2°33.516 274.3 14.7 267 21.6
2004-05-04 08:08:26 51°18.214 2°33.49 274 14.7 267 20.9
2004-05-04 08:08:32 51°18.213 2°33.451 274.1 14.7 268 21.3
2004-05-04 08:08:37 51°18.212 2°33.418 273.8 14.7 267 20.7
2004-05-04 08:08:42 51°18.211 2°33.386 273.5 14.7 267 20.5
2004-05-04 08:08:47 51°18.21 2°33.354 273.3 14.7 267 20.2
2004-05-04 08:08:52 51°18.209 2°33.321 273.6 14.7 268 19.7
2004-05-04 08:08:57 51°18.208 2°33.289 274.1 14.6 268 19.4
2004-05-04 08:09:02 51°18.207 2°33.257 274.2 14.6 267 19.3
2004-05-04 08:09:06 51°18.207 2°33.231 273.7 14.6 267 19.2
2004-05-04 08:09:12 51°18.205 2°33.192 272.9 14.6 266 19.1
2004-05-04 08:09:17 51°18.204 2°33.16 272.9 14.5 267 19.7
2004-05-04 08:09:22 51°18.203 2°33.128 273.4 14.5 267 20
2004-05-04 08:09:27 51°18.202 2°33.096 273.7 14.6 267 20.5
2004-05-04 08:09:32 51°18.201 2°33.063 273.6 14.6 267 20.6
2004-05-04 08:09:37 51°18.2 2°33.031 273.3 14.7 267 20.9
2004-05-04 08:09:41 51°18.199 2°33.005 273.4 14.6 267 21.3
2004-05-04 08:09:46 51°18.198 2°32.973 273.6 14.6 267 21.7
2004-05-04 08:09:52 51°18.197 2°32.934 273.6 14.6 266 21.7
2004-05-04 08:09:57 51°18.196 2°32.902 273 14.6 267 22.4
2004-05-04 08:10:02 51°18.195 2°32.87 273.1 14.5 268 22.5
2004-05-04 08:10:06 51°18.195 2°32.845 273.3 14.4 268 22.8
2004-05-04 08:10:12 51°18.194 2°32.806 273.8 14.4 268 23.5
2004-05-04 08:10:17 51°18.193 2°32.774 274.1 14.4 267 23.6
2004-05-04 08:10:22 51°18.192 2°32.742 273.6 14.5 267 23.8
2004-05-04 08:10:26 51°18.191 2°32.717 273.3 14.4 267 23.9
2004-05-04 08:10:32 51°18.19 2°32.679 273.2 14.4 267 24.3
2004-05-04 08:10:37 51°18.189 2°32.647 273.6 14.4 267 24.4
2004-05-04 08:10:41 51°18.188 2°32.621 273.3 14.5 267 24.4
2004-05-04 08:10:45 51°18.187 2°32.596 273.4 14.5 267 24.6
2004-05-04 08:10:52 51°18.186 2°32.551 273.6 14.4 267 24.2
2004-05-04 08:10:57 51°18.184 2°32.519 273.4 14.5 266 24.2
2004-05-04 08:11:01 51°18.183 2°32.493 273.1 14.5 267 24.9
2004-05-04 08:11:05 51°18.182 2°32.468 273.1 14.5 266 25.3
2004-05-04 08:11:12 51°18.181 2°32.423 273.3 14.4 267 25.8
2004-05-04 08:11:17 51°18.18 2°32.392 273.2 14.4 268 25.7
2004-05-04 08:11:22 51°18.179 2°32.36 273.3 14.4 266 25.9
2004-05-04 08:11:27 51°18.177 2°32.328 273.3 14.4 267 25.9
2004-05-04 08:11:31 51°18.176 2°32.302 273 14.4 266 24.7
2004-05-04 08:11:37 51°18.175 2°32.264 272.9 14.4 266 23.9
2004-05-04 08:11:41 51°18.173 2°32.239 273.2 14.4 265 24.6
2004-05-04 08:11:47 51°18.17 2°32.201 272 14.4 261 25.5
2004-05-04 08:11:52 51°18.166 2°32.17 267.6 14.4 259 26.3
2004-05-04 08:11:57 51°18.161 2°32.139 264.8 14.3 256 26.6
2004-05-04 08:12:02 51°18.156 2°32.108 261.7 14.4 255 26.8
2004-05-04 08:12:06 51°18.151 2°32.084 260.7 14.4 254 26.5
2004-05-04 08:12:12 51°18.143 2°32.048 259.1 14.5 251 26.8
2004-05-04 08:12:17 51°18.135 2°32.018 256.6 14.5 248 27.1
2004-05-04 08:12:22 51°18.127 2°31.988 254.1 14.6 247 27
2004-05-04 08:12:26 51°18.121 2°31.965 252.3 14.6 246 27.1
2004-05-04 08:12:32 51°18.11 2°31.929 251.1 14.6 246 27.1
2004-05-04 08:12:37 51°18.101 2°31.9 250.7 14.6 244 27.3
2004-05-04 08:12:42 51°18.093 2°31.871 250.1 14.6 244 27.3
2004-05-04 08:12:46 51°18.086 2°31.848 249.2 14.6 244 27.5
2004-05-04 08:12:52 51°18.075 2°31.812 248.9 14.7 244 27.6
2004-05-04 08:12:56 51°18.068 2°31.789 249.3 14.8 245 27.6
2004-05-04 08:13:02 51°18.058 2°31.754 249.4 14.7 244 27.7
2004-05-04 08:13:07 51°18.049 2°31.724 249.6 14.7 244 27.9
2004-05-04 08:13:12 51°18.04 2°31.695 249.2 14.8 244 27.8
2004-05-04 08:13:17 51°18.031 2°31.665 249.2 14.8 245 27.9
2004-05-04 08:13:22 51°18.023 2°31.636 249.6 14.8 245 28.1
2004-05-04 08:13:27 51°18.014 2°31.606 250.4 14.7 245 28.1
2004-05-04 08:13:32 51°18.006 2°31.577 249.9 14.7 245 28.1
2004-05-04 08:13:37 51°17.997 2°31.547 249.9 14.7 245 28
2004-05-04 08:13:42 51°17.988 2°31.518 250 14.8 245 28.2
2004-05-04 08:13:47 51°17.979 2°31.488 249.9 14.7 245 28.5
2004-05-04 08:13:52 51°17.97 2°31.458 249.9 14.7 245 28.8
2004-05-04 08:13:57 51°17.962 2°31.429 250 14.8 245 28.2
2004-05-04 08:14:02 51°17.954 2°31.399 250.4 14.7 247 28.6
2004-05-04 08:14:06 51°17.947 2°31.375 250.8 14.6 246 28.6
2004-05-04 08:14:12 51°17.937 2°31.34 251.4 14.7 246 28.7
2004-05-04 08:14:17 51°17.929 2°31.31 250.9 14.8 245 29
2004-05-04 08:14:21 51°17.922 2°31.286 250.4 14.7 246 28.9
2004-05-04 08:14:26 51°17.913 2°31.257 250.3 14.7 245 28.6
2004-05-04 08:14:32 51°17.904 2°31.221 250.3 14.7 246 28.8
2004-05-04 08:14:37 51°17.895 2°31.192 250.6 14.7 245 28.7
2004-05-04 08:14:42 51°17.886 2°31.162 250.7 14.8 246 28.9
2004-05-04 08:14:46 51°17.88 2°31.138 250.5 14.7 245 28.8
2004-05-04 08:14:52 51°17.87 2°31.102 250.5 14.7 247 28.8
2004-05-04 08:14:57 51°17.861 2°31.073 250.6 14.7 246 28.7
2004-05-04 08:15:02 51°17.853 2°31.043 250.9 14.8 247 29.1
2004-05-04 08:15:06 51°17.846 2°31.019 250.4 14.8 245 29
2004-05-04 08:15:12 51°17.836 2°30.983 250.9 14.8 247 29.1
2004-05-04 08:15:17 51°17.828 2°30.954 250.8 14.9 244 29.4
2004-05-04 08:15:22 51°17.819 2°30.923 250 14.9 246 29.4
2004-05-04 08:15:26 51°17.812 2°30.9 250.4 14.8 245 29.2
2004-05-04 08:15:32 51°17.802 2°30.864 250.5 14.9 245 29.3
2004-05-04 08:15:37 51°17.794 2°30.834 250.4 14.8 246 29.2
2004-05-04 08:15:42 51°17.785 2°30.804 250.7 14.8 246 29.3
2004-05-04 08:15:47 51°17.776 2°30.774 250.4 14.9 245 29.4
2004-05-04 08:15:52 51°17.768 2°30.744 250.8 14.9 245 29
2004-05-04 08:15:56 51°17.761 2°30.72 250.8 14.9 246 28.9
2004-05-04 08:16:01 51°17.752 2°30.69 250.5 14.9 245 29.3
2004-05-04 08:16:07 51°17.742 2°30.654 251.1 14.9 247 29.4
2004-05-04 08:16:12 51°17.734 2°30.624 251.1 14.8 246 29.2
2004-05-04 08:16:16 51°17.727 2°30.6 250.9 14.9 246 29.3
2004-05-04 08:16:21 51°17.718 2°30.57 250.9 14.9 245 29.2
2004-05-04 08:16:26 51°17.71 2°30.54 250.5 14.9 246 29
2004-05-04 08:16:32 51°17.7 2°30.505 250.6 14.8 245 29.2
2004-05-04 08:16:37 51°17.691 2°30.474 250.8 14.9 246 29.3
2004-05-04 08:16:42 51°17.683 2°30.445 251.1 14.9 246 29.4
2004-05-04 08:16:45 51°17.678 2°30.426 251 14.8 246 29.2
2004-05-04 08:16:52 51°17.667 2°30.384 251.3 14.9 247 29.2
2004-05-04 08:16:57 51°17.658 2°30.354 251.5 14.8 246 29.5
2004-05-04 08:17:02 51°17.65 2°30.325 251.1 14.9 245 29.2
2004-05-04 08:17:06 51°17.643 2°30.3 250.9 14.9 246 29.6
2004-05-04 08:17:12 51°17.633 2°30.264 250.4 14.9 246 28.9
2004-05-04 08:17:17 51°17.625 2°30.234 251.4 14.9 246 29.1
2004-05-04 08:17:22 51°17.616 2°30.204 251.2 14.9 246 29
2004-05-04 08:17:27 51°17.607 2°30.174 250.7 15 246 29.1
2004-05-04 08:17:32 51°17.599 2°30.144 251.2 15 246 29.3
2004-05-04 08:17:37 51°17.59 2°30.114 250.9 15 246 29
2004-05-04 08:17:42 51°17.582 2°30.083 251 14.9 246 28.8
2004-05-04 08:17:47 51°17.573 2°30.053 251 14.9 246 28.8
2004-05-04 08:17:52 51°17.565 2°30.023 250.5 15 245 28.9
2004-05-04 08:17:56 51°17.558 2°29.999 251.1 14.9 246 29.2
2004-05-04 08:18:01 51°17.55 2°29.969 250.9 14.9 246 29.1
2004-05-04 08:18:06 51°17.542 2°29.939 251.4 14.8 247 29.3
2004-05-04 08:18:12 51°17.532 2°29.903 251.8 14.8 247 29.3
2004-05-04 08:18:17 51°17.523 2°29.873 251.3 14.8 245 29.1
2004-05-04 08:18:22 51°17.514 2°29.844 250 14.9 243 29.4
2004-05-04 08:18:25 51°17.508 2°29.826 248.3 14.9 243 29
2004-05-04 08:18:32 51°17.496 2°29.785 247.9 14.9 244 29.3
2004-05-04 08:18:37 51°17.486 2°29.756 247.6 14.8 243 29.2
2004-05-04 08:18:42 51°17.476 2°29.727 247.4 14.9 242 29.4
2004-05-04 08:18:46 51°17.469 2°29.703 246.8 14.9 242 29.3
2004-05-04 08:18:52 51°17.458 2°29.668 246.9 14.9 242 29.2
2004-05-04 08:18:57 51°17.449 2°29.638 246.8 15 242 29
2004-05-04 08:19:02 51°17.44 2°29.609 246.8 15 242 29.1
2004-05-04 08:19:06 51°17.432 2°29.586 247 15 242 28.9
2004-05-04 08:19:12 51°17.419 2°29.551 246.7 15 242 29.2
2004-05-04 08:19:17 51°17.41 2°29.521 246.6 14.9 243 28.8
2004-05-04 08:19:22 51°17.4 2°29.492 247.5 15 243 28.8
2004-05-04 08:19:26 51°17.392 2°29.469 247.3 15 242 29
2004-05-04 08:19:32 51°17.381 2°29.433 247.1 14.9 243 28.9
2004-05-04 08:19:37 51°17.371 2°29.404 247.5 15 242 28.7
2004-05-04 08:19:42 51°17.361 2°29.375 247.2 15 242 28.5
2004-05-04 08:19:46 51°17.353 2°29.352 246.8 15 241 28.8
2004-05-04 08:19:50 51°17.345 2°29.328 246.3 15.1 242 29
2004-05-04 08:19:57 51°17.331 2°29.287 246.4 15.1 242 29.2
2004-05-04 08:20:02 51°17.322 2°29.258 246.6 15 242 28.9
2004-05-04 08:20:07 51°17.312 2°29.228 246.8 15.1 242 29
2004-05-04 08:20:12 51°17.302 2°29.199 247 15.1 242 28.7
2004-05-04 08:20:17 51°17.292 2°29.169 247.1 15.1 242 28.4
2004-05-04 08:20:22 51°17.283 2°29.14 246.8 15.1 242 28.8
2004-05-04 08:20:26 51°17.275 2°29.116 247.1 15.1 242 28.3
2004-05-04 08:20:32 51°17.264 2°29.081 247.2 15.1 242 28.8
2004-05-04 08:20:36 51°17.257 2°29.057 247.1 15.1 243 28.7
2004-05-04 08:20:42 51°17.245 2°29.021 247.3 15.1 243 28.6
2004-05-04 08:20:46 51°17.237 2°28.998 247.3 15 243 28.4
2004-05-04 08:20:51 51°17.227 2°28.968 247.1 15.1 242 27.5
2004-05-04 08:20:57 51°17.215 2°28.933 247.1 15 243 27.7
2004-05-04 08:21:01 51°17.207 2°28.91 247.4 15 243 27.7
2004-05-04 08:21:06 51°17.198 2°28.881 247.3 15 242 27.8
2004-05-04 08:21:12 51°17.186 2°28.845 246.7 15 242 27.2
2004-05-04 08:21:17 51°17.176 2°28.816 247 15 242 27.1
2004-05-04 08:21:22 51°17.167 2°28.787 247.4 14.8 243 27.2
2004-05-04 08:21:26 51°17.16 2°28.765 247.7 13.9 244 27.4
2004-05-04 08:21:32 51°17.15 2°28.733 247.9 13.7 244 27.3
2004-05-04 08:21:37 51°17.142 2°28.708 248.2 12.8 243 26.2
2004-05-04 08:21:42 51°17.134 2°28.683 248.1 12.6 243 26.1
2004-05-04 08:21:46 51°17.127 2°28.664 247.5 12.3 241 26.7
2004-05-04 08:21:52 51°17.118 2°28.636 246.7 12.1 242 26.1
2004-05-04 08:21:57 51°17.112 2°28.612 247 11.9 242 26.4
2004-05-04 08:22:01 51°17.106 2°28.594 247 11.7 242 26.4
2004-05-04 08:22:07 51°17.097 2°28.567 246.8 11.6 242 25.3
2004-05-04 08:22:12 51°17.089 2°28.545 247.1 11.5 243 25
2004-05-04 08:22:17 51°17.082 2°28.522 247.5 11.3 242 24.8
2004-05-04 08:22:22 51°17.074 2°28.5 247.5 11.3 242 25.2
2004-05-04 08:22:27 51°17.067 2°28.479 247.3 11.2 242 24.6
2004-05-04 08:22:32 51°17.06 2°28.457 247.5 11.1 243 24.2
2004-05-04 08:22:36 51°17.054 2°28.44 246.9 10.8 242 23.6
2004-05-04 08:22:42 51°17.046 2°28.415 246.9 10.5 243 24.4
2004-05-04 08:22:47 51°17.04 2°28.396 247.6 10.1 242 23.6
2004-05-04 08:22:52 51°17.034 2°28.377 247.5 9.7 242 23
2004-05-04 08:22:56 51°17.028 2°28.363 246.3 9.2 240 24.1
2004-05-04 08:23:02 51°17.021 2°28.343 244.4 8.9 239 23
2004-05-04 08:23:06 51°17.016 2°28.33 242.3 8.4 236 23.2
2004-05-04 08:23:11 51°17.01 2°28.316 239.9 8.4 235 22.8
2004-05-04 08:23:17 51°17.002 2°28.298 237.7 7.9 234 22.4
2004-05-04 08:23:22 51°16.995 2°28.285 235.9 7.8 233 23.5
2004-05-04 08:23:27 51°16.988 2°28.272 234.4 7.6 232 23.3
2004-05-04 08:23:30 51°16.984 2°28.264 233 7.5 230 22.5
2004-05-04 08:23:37 51°16.975 2°28.247 231.5 7.3 230 23
2004-05-04 08:23:41 51°16.97 2°28.237 230.7 7.2 231 22.1
2004-05-04 08:23:45 51°16.965 2°28.227 230.9 7.1 231 22.3
2004-05-04 08:23:52 51°16.956 2°28.21 231.8 7.1 231 22.7
2004-05-04 08:23:56 51°16.952 2°28.2 232.3 7 232 22.7
2004-05-04 08:24:01 51°16.946 2°28.188 233.2 6.9 233 21.3
2004-05-04 08:24:06 51°16.94 2°28.176 234.4 6.9 233 21.3
2004-05-04 08:24:12 51°16.933 2°28.161 235.7 6.8 233 21.7
2004-05-04 08:24:17 51°16.928 2°28.149 236.4 6.7 234 21.7
2004-05-04 08:24:21 51°16.923 2°28.14 236.6 6.7 234 21.3
2004-05-04 08:24:26 51°16.918 2°28.127 237.6 6.7 236 21.6
2004-05-04 08:24:32 51°16.912 2°28.112 238.3 6.7 236 21
2004-05-04 08:24:37 51°16.907 2°28.1 239.5 6.7 237 20.9
2004-05-04 08:24:42 51°16.902 2°28.088 240.3 6.7 237 20.7
2004-05-04 08:24:46 51°16.898 2°28.077 240.9 6.7 238 20.8
2004-05-04 08:24:52 51°16.892 2°28.062 241.6 6.6 238 21
2004-05-04 08:24:57 51°16.887 2°28.05 242.4 6.7 239 20.3
2004-05-04 08:25:02 51°16.883 2°28.037 243.4 6.7 239 20.2
2004-05-04 08:25:06 51°16.879 2°28.027 244.2 6.7 240 20
2004-05-04 08:25:12 51°16.873 2°28.011 244.1 6.7 239 19.8
2004-05-04 08:25:17 51°16.868 2°27.999 243.8 6.7 239 19.5
2004-05-04 08:25:22 51°16.863 2°27.986 242.7 6.7 238 19.8
2004-05-04 08:25:27 51°16.859 2°27.974 241.7 6.7 238 19.6
2004-05-04 08:25:32 51°16.854 2°27.962 240.1 6.6 237 19
2004-05-04 08:25:36 51°16.849 2°27.952 238.7 6.6 235 18.8
2004-05-04 08:25:42 51°16.843 2°27.938 236.7 6.6 234 19.2
2004-05-04 08:25:46 51°16.838 2°27.929 235.1 6.4 232 19
2004-05-04 08:25:52 51°16.832 2°27.916 232.4 6.3 232 18.7
2004-05-04 08:25:57 51°16.827 2°27.905 231.1 6.3 232 18.7
2004-05-04 08:26:02 51°16.821 2°27.894 230.8 6.3 231 18.5
2004-05-04 08:26:07 51°16.816 2°27.883 231.3 6.3 232 18.2
2004-05-04 08:26:12 51°16.81 2°27.872 232.1 6.3 233 17.9
2004-05-04 08:26:16 51°16.806 2°27.864 232.7 6.3 233 17.6
2004-05-04 08:26:22 51°16.8 2°27.85 233.7 6.3 234 17.6
2004-05-04 08:26:26 51°16.796 2°27.841 234.8 6.3 236 17.5
2004-05-04 08:26:32 51°16.79 2°27.827 236.2 6.3 237 17.6
2004-05-04 08:26:37 51°16.785 2°27.815 237.6 6.4 238 17.2
2004-05-04 08:26:42 51°16.78 2°27.803 238.8 6.4 239 17
2004-05-04 08:26:46 51°16.777 2°27.793 240.3 6.4 238 16.9
2004-05-04 08:26:52 51°16.771 2°27.779 241.5 6.4 239 16.5
2004-05-04 08:26:57 51°16.767 2°27.767 241.1 6.3 237 16.7
2004-05-04 08:27:02 51°16.762 2°27.755 239.5 6.2 236 16.4
2004-05-04 08:27:07 51°16.757 2°27.744 237.1 6.2 234 16.2
2004-05-04 08:27:12 51°16.751 2°27.734 234.8 6.1 232 15.9
2004-05-04 08:27:17 51°16.746 2°27.724 231.7 6 229 16
2004-05-04 08:27:21 51°16.741 2°27.717 228.1 5.8 227 15.7
2004-05-04 08:27:27 51°16.735 2°27.706 225.7 5.8 225 15.5
2004-05-04 08:27:32 51°16.729 2°27.697 222.8 5.8 224 15.8
2004-05-04 08:27:37 51°16.723 2°27.689 220.8 5.7 222 15.7
2004-05-04 08:27:41 51°16.718 2°27.683 219.1 5.6 220 15.7
2004-05-04 08:27:46 51°16.712 2°27.675 217 5.4 219 15.6
2004-05-04 08:27:52 51°16.705 2°27.667 215.8 5.2 218 15.5
2004-05-04 08:27:57 51°16.7 2°27.661 214.3 4.9 217 15.4
2004-05-04 08:28:01 51°16.696 2°27.656 213.3 4.8 217 15.4
2004-05-04 08:28:07 51°16.69 2°27.648 213.4 4.7 219 15.4
2004-05-04 08:28:12 51°16.685 2°27.642 213.9 4.6 218 15.3
2004-05-04 08:28:17 51°16.68 2°27.635 215.5 4.4 221 15.5
2004-05-04 08:28:22 51°16.676 2°27.628 217.7 4.4 223 15.5
2004-05-04 08:28:26 51°16.673 2°27.623 220.8 4.3 228 15.4
2004-05-04 08:28:32 51°16.668 2°27.614 224.5 4.3 229 15.2
2004-05-04 08:28:37 51°16.665 2°27.606 229.1 4.2 235 15.1
2004-05-04 08:28:41 51°16.662 2°27.6 235.2 4.1 239 15.1
2004-05-04 08:28:47 51°16.659 2°27.59 240.9 4.1 243 15.1
2004-05-04 08:28:52 51°16.657 2°27.582 245.8 4.1 245 15
2004-05-04 08:28:57 51°16.655 2°27.573 251.3 4.1 252 14.7
2004-05-04 08:29:02 51°16.654 2°27.564 256.2 4.3 253 14.7
2004-05-04 08:29:07 51°16.653 2°27.554 262.5 4.5 257 14.5
2004-05-04 08:29:12 51°16.651 2°27.543 265.7 4.7 259 14.5
2004-05-04 08:29:17 51°16.65 2°27.532 269.2 5.3 263 14
2004-05-04 08:29:22 51°16.649 2°27.519 271.4 5.6 263 13.8
2004-05-04 08:29:27 51°16.649 2°27.506 272.1 5.8 263 13.4
2004-05-04 08:29:31 51°16.648 2°27.495 271.4 6 263 13.1
2004-05-04 08:29:37 51°16.646 2°27.478 270 6.5 262 13.1
2004-05-04 08:29:41 51°16.645 2°27.467 269.1 6.6 262 12.7
2004-05-04 08:29:47 51°16.644 2°27.449 268.3 6.7 262 12.5
2004-05-04 08:29:52 51°16.643 2°27.435 269 6.4 268 12.3
2004-05-04 08:29:57 51°16.643 2°27.421 273.6 6.1 267 12.6
2004-05-04 08:30:02 51°16.643 2°27.408 275.9 5.9 268 12.4
2004-05-04 08:30:07 51°16.642 2°27.396 277.3 5.6 269 12.1
2004-05-04 08:30:10 51°16.643 2°27.389 278.9 5.4 270 12
2004-05-04 08:30:16 51°16.643 2°27.375 280.1 5.1 271 11.8
2004-05-04 08:30:22 51°16.643 2°27.362 281.4 5 271 11.3
2004-05-04 08:30:27 51°16.643 2°27.352 282.1 4.8 273 11.3
2004-05-04 08:30:32 51°16.644 2°27.342 282.7 4.4 273 10.9
2004-05-04 08:30:37 51°16.644 2°27.334 282.9 3.8 271 11.2
2004-05-04 08:30:42 51°16.644 2°27.326 282.9 3.5 272 11.4
2004-05-04 08:30:45 51°16.644 2°27.322 284.9 2.9 272 11.4
2004-05-04 08:30:52 51°16.644 2°27.315 287.6 2.4 271 11.1
2004-05-04 08:30:57 51°16.644 2°27.311 291.2 1.7 267 11.1
2004-05-04 08:31:02 51°16.643 2°27.308 294.6 1.3 260 10.9
2004-05-04 08:31:06 51°16.643 2°27.307 297.5 0.9 243 11
2004-05-04 08:31:12 51°16.642 2°27.306 300.2 0.9 233 10.9
2004-05-04 08:31:17 51°16.642 2°27.304 302.7 0.7 256 10.9
2004-05-04 08:31:22 51°16.641 2°27.302 304.8 0.8 248 10.9
2004-05-04 08:31:26 51°16.641 2°27.301 306.6 0.7 257 10.9
2004-05-04 08:31:32 51°16.641 2°27.3 308.4 0.7 258 10.8
2004-05-04 08:31:37 51°16.641 2°27.298 309.9 0.7 269 10.8
2004-05-04 08:31:42 51°16.641 2°27.296 310.9 0.7 269 11.1
2004-05-04 08:31:47 51°16.641 2°27.295 312 0.8 265 -999
2004-05-04 08:31:52 51°16.641 2°27.293 313.1 0.7 275 -999
2004-05-04 08:31:57 51°16.641 2°27.291 314.3 0.8 267 -999
2004-05-04 08:32:02 51°16.641 2°27.29 314.5 0.7 270 -999
2004-05-04 08:32:07 51°16.641 2°27.288 315.2 0.7 282 -999
2004-05-04 08:32:12 51°16.641 2°27.287 315.8 0.7 278 -999
2004-05-04 08:32:18 51°16.642 2°27.285 317.1 0.7 281 -999
2004-05-04 08:32:22 51°16.642 2°27.284 318.5 0.8 283 -999
2004-05-04 08:32:27 51°16.642 2°27.282 319 0.8 282 11.5
2004-05-04 08:32:32 51°16.642 2°27.28 319 0.7 285 11.6
2004-05-04 08:32:37 51°16.643 2°27.279 319.2 0.8 285 11.3
2004-05-04 08:32:42 51°16.643 2°27.277 319.3 0.9 285 11.3
2004-05-04 08:32:46 51°16.643 2°27.276 319 0.8 287 11.4
2004-05-04 08:32:52 51°16.643 2°27.273 318.4 0.8 278 11.5
2004-05-04 08:32:57 51°16.644 2°27.272 317.8 0.9 290 11.4
2004-05-04 08:33:01 51°16.644 2°27.27 316.4 0.8 285 11.2
2004-05-04 08:33:05 51°16.644 2°27.269 315.5 0.9 287 11.3
2004-05-04 08:33:12 51°16.645 2°27.266 315.1 0.8 298 11.2
2004-05-04 08:33:17 51°16.645 2°27.265 314.2 0.9 283 11
2004-05-04 08:33:22 51°16.645 2°27.263 313.4 0.9 283 10.9
2004-05-04 08:33:26 51°16.646 2°27.262 312.4 0.9 284 11.1
2004-05-04 08:33:32 51°16.646 2°27.259 311.5 0.9 283 11.1
2004-05-04 08:33:37 51°16.646 2°27.258 310.8 0.9 284 11.3
2004-05-04 08:33:41 51°16.647 2°27.256 310 0.9 283 11.3
2004-05-04 08:33:46 51°16.647 2°27.254 309.4 0.9 280 11
2004-05-04 08:33:52 51°16.647 2°27.252 308.7 0.9 282 11
2004-05-04 08:33:57 51°16.647 2°27.251 308.2 0.8 286 10.8
2004-05-04 08:34:02 51°16.648 2°27.249 307.7 0.7 286 10.6
2004-05-04 08:34:07 51°16.648 2°27.247 307.4 0.8 288 10.7
2004-05-04 08:34:12 51°16.649 2°27.245 307.4 0.8 289 10.7
2004-05-04 08:34:17 51°16.649 2°27.243 307.5 0.9 297 10.6
2004-05-04 08:34:22 51°16.65 2°27.241 308 1 299 10.4
2004-05-04 08:34:26 51°16.651 2°27.24 309.8 1.3 306 10.4
2004-05-04 08:34:32 51°16.652 2°27.237 311 1.2 303 10.5
2004-05-04 08:34:37 51°16.653 2°27.234 313.4 1.5 301 10.2
2004-05-04 08:34:42 51°16.654 2°27.231 315.2 1.5 304 10.1
2004-05-04 08:34:46 51°16.655 2°27.229 316.8 1.6 304 9.8
2004-05-04 08:34:52 51°16.656 2°27.226 318.6 1.5 302 9.8
2004-05-04 08:34:57 51°16.658 2°27.223 320.1 1.5 307 10
2004-05-04 08:35:01 51°16.658 2°27.22 321.1 1.6 300 10.1
2004-05-04 08:35:06 51°16.66 2°27.218 321.8 1.6 303 10.3
2004-05-04 08:35:12 51°16.661 2°27.214 322.3 1.6 306 10.6
2004-05-04 08:35:16 51°16.662 2°27.212 322.4 1.7 305 10.9
2004-05-04 08:35:22 51°16.664 2°27.208 322.4 1.7 303 10.7
2004-05-04 08:35:26 51°16.665 2°27.205 322.6 1.8 304 10.7
2004-05-04 08:35:32 51°16.667 2°27.201 322.3 1.7 303 10.5
2004-05-04 08:35:37 51°16.668 2°27.198 322.1 1.7 306 10.7
2004-05-04 08:35:42 51°16.669 2°27.195 322.2 1.7 301 10.5
2004-05-04 08:35:46 51°16.67 2°27.192 322.2 1.7 300 10.4
2004-05-04 08:35:52 51°16.672 2°27.188 322.2 1.8 306 10.3
2004-05-04 08:35:57 51°16.674 2°27.184 322.3 2.2 308 10.3
2004-05-04 08:36:01 51°16.676 2°27.181 323.4 2.4 310 10
2004-05-04 08:36:07 51°16.679 2°27.176 325.8 2.8 315 10
2004-05-04 08:36:12 51°16.682 2°27.171 329.2 3 318 9.9
2004-05-04 08:36:17 51°16.686 2°27.167 333.2 3.1 326 9.6
2004-05-04 08:36:21 51°16.689 2°27.164 338.9 3.4 328 9.6
2004-05-04 08:36:24 51°16.691 2°27.162 344.7 3.4 332 9.6
2004-05-04 08:36:31 51°16.698 2°27.158 350.6 3.5 338 9.7
2004-05-04 08:36:37 51°16.703 2°27.156 357 3.4 351 9.7
2004-05-04 08:36:42 51°16.708 2°27.155 3.3 3.5 353 9.6
2004-05-04 08:36:47 51°16.713 2°27.156 10.2 3.5 6 9.5
2004-05-04 08:36:52 51°16.718 2°27.158 17.2 3.5 9 9.4
2004-05-04 08:36:57 51°16.723 2°27.161 24.1 3.5 22 9.3
2004-05-04 08:37:02 51°16.727 2°27.164 31.2 3.5 26 9.4
2004-05-04 08:37:06 51°16.73 2°27.168 37.9 3.5 34 9.5
2004-05-04 08:37:12 51°16.734 2°27.174 44.6 3.6 39 9.8
2004-05-04 08:37:17 51°16.737 2°27.181 51.5 3.6 53 9.7
2004-05-04 08:37:22 51°16.74 2°27.188 58.6 3.7 56 9.9
2004-05-04 08:37:27 51°16.742 2°27.196 65.4 3.8 66 10.1
2004-05-04 08:37:32 51°16.743 2°27.204 72.6 3.8 75 10.3
2004-05-04 08:37:37 51°16.743 2°27.213 80.4 3.9 86 10.3
2004-05-04 08:37:42 51°16.742 2°27.221 87.9 3.9 95 10
2004-05-04 08:37:45 51°16.742 2°27.226 95.4 3.8 99 10.2
2004-05-04 08:37:52 51°16.739 2°27.238 102.5 3.9 107 10.3
2004-05-04 08:37:57 51°16.737 2°27.246 109.4 4 119 10.3
2004-05-04 08:38:02 51°16.733 2°27.253 116.4 4 124 9.6
2004-05-04 08:38:06 51°16.731 2°27.258 122.7 4.1 132 9.6
2004-05-04 08:38:12 51°16.725 2°27.266 128.3 4.1 136 9.8
2004-05-04 08:38:17 51°16.721 2°27.272 134.5 4.3 142 10.2
2004-05-04 08:38:22 51°16.716 2°27.276 140.4 4.3 149 10.3
2004-05-04 08:38:26 51°16.711 2°27.28 145.8 4.4 154 10.4
2004-05-04 08:38:32 51°16.704 2°27.285 150.9 4.5 157 10.5
2004-05-04 08:38:37 51°16.698 2°27.287 156 4.5 165 10.5
2004-05-04 08:38:42 51°16.692 2°27.29 161.5 4.7 166 10.6
2004-05-04 08:38:47 51°16.685 2°27.292 165.4 4.7 169 10.9
2004-05-04 08:38:52 51°16.679 2°27.294 168.5 4.8 171 10.9
2004-05-04 08:38:57 51°16.672 2°27.296 169.2 4.9 170 10.7
2004-05-04 08:39:02 51°16.665 2°27.298 168 5 167 11
2004-05-04 08:39:06 51°16.659 2°27.3 164.7 5 166 11.2
2004-05-04 08:39:12 51°16.651 2°27.305 161.4 5.2 162 11.1
2004-05-04 08:39:17 51°16.644 2°27.309 158.3 5.4 160 11.3
2004-05-04 08:39:22 51°16.637 2°27.313 156.6 5.5 159 11.4
2004-05-04 08:39:26 51°16.631 2°27.317 155.1 5.6 159 11.4
2004-05-04 08:39:32 51°16.623 2°27.323 154.3 5.7 159 11.3
2004-05-04 08:39:37 51°16.615 2°27.328 154.7 5.9 158 11.6
2004-05-04 08:39:42 51°16.608 2°27.333 155.4 5.9 157 11.5
2004-05-04 08:39:45 51°16.603 2°27.336 155.4 5.8 158 11.4
2004-05-04 08:39:52 51°16.593 2°27.343 154.9 5.8 157 11.8
2004-05-04 08:39:57 51°16.585 2°27.348 156 6 159 12
2004-05-04 08:40:01 51°16.578 2°27.351 156.7 6.1 159 12.2
2004-05-04 08:40:06 51°16.57 2°27.355 157.5 6.1 160 12.4
2004-05-04 08:40:12 51°16.561 2°27.361 158.2 6.1 160 12.6
2004-05-04 08:40:17 51°16.552 2°27.366 159.1 6.6 162 12.7
2004-05-04 08:40:22 51°16.542 2°27.37 159.8 7.1 164 13.2
2004-05-04 08:40:26 51°16.534 2°27.373 163 7.7 167 13.5
2004-05-04 08:40:32 51°16.521 2°27.378 165.9 8 168 13.7
2004-05-04 08:40:37 51°16.509 2°27.381 167.8 8.4 169 14
2004-05-04 08:40:42 51°16.497 2°27.383 169.1 8.7 172 14.3
2004-05-04 08:40:47 51°16.485 2°27.385 170.7 8.9 173 14.6
2004-05-04 08:40:52 51°16.472 2°27.386 173.7 9 175 14.9
2004-05-04 08:40:56 51°16.461 2°27.386 176.4 9.4 180 15.4
2004-05-04 08:41:02 51°16.445 2°27.386 178.6 9.6 181 15.7
2004-05-04 08:41:05 51°16.437 2°27.386 180.6 10 183 15.9
2004-05-04 08:41:12 51°16.417 2°27.384 182.1 10.3 184 16.3
2004-05-04 08:41:17 51°16.402 2°27.382 183.3 10.6 184 16.4
2004-05-04 08:41:22 51°16.387 2°27.379 184.2 10.7 186 16.7
2004-05-04 08:41:26 51°16.375 2°27.377 185.3 11 186 16.8
2004-05-04 08:41:32 51°16.356 2°27.374 185.6 11.3 185 17.2
2004-05-04 08:41:36 51°16.342 2°27.372 185.6 12.3 186 17.9
2004-05-04 08:41:41 51°16.325 2°27.369 186 12.6 186 17.9
2004-05-04 08:41:46 51°16.307 2°27.366 185.8 13.1 186 18.5
2004-05-04 08:41:50 51°16.292 2°27.363 186.1 13.2 186 18.8
2004-05-04 08:41:56 51°16.27 2°27.359 186.4 13.5 187 19.1
2004-05-04 08:42:02 51°16.247 2°27.354 186.7 13.7 188 19.5
2004-05-04 08:42:06 51°16.232 2°27.351 187.9 13.8 187 19.6
2004-05-04 08:42:12 51°16.209 2°27.346 188.2 13.8 188 19.8
2004-05-04 08:42:17 51°16.19 2°27.341 188.4 13.9 188 19.7
2004-05-04 08:42:21 51°16.175 2°27.338 188.7 14 189 20.4
2004-05-04 08:42:26 51°16.156 2°27.334 188.4 14 187 20.3
2004-05-04 08:42:32 51°16.133 2°27.328 188 14.1 188 20.5
2004-05-04 08:42:36 51°16.117 2°27.324 188.2 14.2 187 21
2004-05-04 08:42:42 51°16.094 2°27.319 187.8 14.2 188 20.9
2004-05-04 08:42:46 51°16.078 2°27.315 188 14.1 189 20.9
2004-05-04 08:42:52 51°16.055 2°27.309 188.4 14.1 188 21.4
2004-05-04 08:42:57 51°16.035 2°27.304 189.4 14.2 190 21.6
2004-05-04 08:43:02 51°16.016 2°27.298 190.2 14.3 191 21.3
2004-05-04 08:43:06 51°16.001 2°27.293 191.1 14.2 191 22
2004-05-04 08:43:12 51°15.978 2°27.285 192.2 14.2 193 22.1
2004-05-04 08:43:17 51°15.959 2°27.278 192.6 14.2 192 21.8
2004-05-04 08:43:22 51°15.939 2°27.272 192.8 14.3 192 22
2004-05-04 08:43:26 51°15.924 2°27.266 193 14.3 193 21.9
2004-05-04 08:43:32 51°15.901 2°27.258 193.2 14.3 193 22.3
2004-05-04 08:43:37 51°15.881 2°27.252 192.9 14.2 192 22.3
2004-05-04 08:43:40 51°15.87 2°27.247 192.6 14.2 192 22.3
2004-05-04 08:43:47 51°15.843 2°27.239 192.3 14.2 191 22.1
2004-05-04 08:43:52 51°15.824 2°27.233 192.2 14.3 192 22.7
2004-05-04 08:43:57 51°15.804 2°27.226 192 14.2 191 22.7
2004-05-04 08:44:02 51°15.785 2°27.22 192.2 14.1 191 22.7
2004-05-04 08:44:06 51°15.77 2°27.216 192.1 14.1 191 22.6
2004-05-04 08:44:12 51°15.747 2°27.209 191.8 14.2 192 22.9
2004-05-04 08:44:16 51°15.731 2°27.204 191.6 14.2 192 22.5
2004-05-04 08:44:22 51°15.708 2°27.196 192 14.1 191 23
2004-05-04 08:44:26 51°15.693 2°27.191 192.5 14.1 192 23.3
2004-05-04 08:44:32 51°15.67 2°27.183 192.6 14.1 192 23.1
2004-05-04 08:44:37 51°15.651 2°27.177 192.1 14.2 191 23.1
2004-05-04 08:44:41 51°15.635 2°27.173 191.6 14.2 191 23.8
2004-05-04 08:44:47 51°15.612 2°27.166 191.7 14.1 191 23.4
2004-05-04 08:44:52 51°15.593 2°27.16 191.4 14.1 191 24.1
2004-05-04 08:44:56 51°15.577 2°27.156 191 14.2 190 23.9
2004-05-04 08:45:02 51°15.554 2°27.149 191.1 14.2 190 24.1
2004-05-04 08:45:06 51°15.539 2°27.144 191.4 14.2 190 23.7
2004-05-04 08:45:11 51°15.519 2°27.138 191.6 14.1 191 24.4
2004-05-04 08:45:17 51°15.496 2°27.131 191.6 14.2 191 23.4
2004-05-04 08:45:22 51°15.477 2°27.125 191.2 14.3 191 23.7
2004-05-04 08:45:25 51°15.465 2°27.122 191.2 14.3 190 23.7
2004-05-04 08:45:32 51°15.438 2°27.114 190.7 14.2 190 23.8
2004-05-04 08:45:37 51°15.419 2°27.109 190.9 14.3 190 24.3
2004-05-04 08:45:42 51°15.399 2°27.103 190.5 14.3 191 24.6
2004-05-04 08:45:46 51°15.384 2°27.099 190.8 14.3 190 24.3
2004-05-04 08:45:52 51°15.36 2°27.092 190.8 14.3 191 24.3
2004-05-04 08:45:57 51°15.341 2°27.086 191.4 14.2 189 25
2004-05-04 08:46:02 51°15.321 2°27.081 190.7 14.3 189 24.7
2004-05-04 08:46:07 51°15.302 2°27.076 190.2 14.2 189 25
2004-05-04 08:46:12 51°15.282 2°27.07 190.6 14.2 190 25.1
2004-05-04 08:46:17 51°15.263 2°27.065 191 14.2 190 25.1
2004-05-04 08:46:21 51°15.247 2°27.061 190.8 14.2 190 25.5
2004-05-04 08:46:26 51°15.228 2°27.055 191 14.2 190 25.6
2004-05-04 08:46:32 51°15.205 2°27.049 190.9 14.2 190 25.8
2004-05-04 08:46:37 51°15.185 2°27.044 191.2 14.2 190 25.8
2004-05-04 08:46:41 51°15.17 2°27.04 190.4 14.3 189 26.6
2004-05-04 08:46:47 51°15.146 2°27.032 190.8 14.3 190 26.1
2004-05-04 08:46:52 51°15.127 2°27.026 192.2 14.3 192 26.7
2004-05-04 08:46:57 51°15.108 2°27.018 193.2 14.3 194 27.2
2004-05-04 08:47:02 51°15.088 2°27.011 194.2 14.3 193 27
2004-05-04 08:47:07 51°15.069 2°27.003 194.5 14.3 193 27.4
2004-05-04 08:47:12 51°15.05 2°26.996 194.5 14.3 194 27.2
2004-05-04 08:47:17 51°15.03 2°26.989 195.3 14.3 193 26.5
2004-05-04 08:47:22 51°15.011 2°26.982 194.9 14.2 193 27.4
2004-05-04 08:47:26 51°14.996 2°26.975 194.8 14.2 195 27.3
2004-05-04 08:47:30 51°14.98 2°26.969 195.4 14.2 195 27.7
2004-05-04 08:47:36 51°14.957 2°26.96 195.3 14.2 194 27
2004-05-04 08:47:42 51°14.935 2°26.952 195.5 14.1 193 27.2
2004-05-04 08:47:45 51°14.923 2°26.948 194.6 14.2 193 27.5
2004-05-04 08:47:52 51°14.897 2°26.937 194.3 14.3 193 27.6
2004-05-04 08:47:57 51°14.877 2°26.931 194.3 14.3 192 27.4
2004-05-04 08:48:02 51°14.858 2°26.923 194.5 14.2 193 27.6
2004-05-04 08:48:06 51°14.842 2°26.918 194.5 14.2 193 27.4
2004-05-04 08:48:10 51°14.827 2°26.912 194.3 14.2 193 27.4
2004-05-04 08:48:16 51°14.804 2°26.903 194.7 14.3 193 27.8
2004-05-04 08:48:22 51°14.781 2°26.894 195.1 14.3 194 27.7
2004-05-04 08:48:26 51°14.766 2°26.888 194.7 14.2 194 27.8
2004-05-04 08:48:32 51°14.743 2°26.879 194.5 14.2 193 27.9
2004-05-04 08:48:36 51°14.727 2°26.873 195.1 14.4 194 28.2
2004-05-04 08:48:42 51°14.704 2°26.864 195.1 14.4 194 28.4
2004-05-04 08:48:46 51°14.688 2°26.858 195 14.3 193 28.2
2004-05-04 08:48:52 51°14.665 2°26.849 194.4 14.3 193 28.4
2004-05-04 08:48:56 51°14.65 2°26.843 194.1 14.5 194 28.2
2004-05-04 08:49:02 51°14.627 2°26.835 194.5 14.4 193 28.4
2004-05-04 08:49:06 51°14.611 2°26.829 194.8 14.3 193 28.2
2004-05-04 08:49:12 51°14.588 2°26.819 194.5 14.3 194 28.4
2004-05-04 08:49:16 51°14.572 2°26.814 195.1 14.3 194 28.3
2004-05-04 08:49:22 51°14.549 2°26.805 194.9 14.3 193 28.4
2004-05-04 08:49:26 51°14.534 2°26.799 194.8 14.3 193 28.5
2004-05-04 08:49:32 51°14.511 2°26.79 194.3 14.3 193 28.6
2004-05-04 08:49:37 51°14.492 2°26.783 194.5 14.3 193 28.6
2004-05-04 08:49:42 51°14.472 2°26.777 194.3 14.2 192 28.5
2004-05-04 08:49:46 51°14.457 2°26.772 193.8 14.2 193 28.4
2004-05-04 08:49:52 51°14.434 2°26.763 194.4 14.2 193 28.5
2004-05-04 08:49:57 51°14.415 2°26.756 194.8 14.3 193 28.3
2004-05-04 08:50:02 51°14.395 2°26.749 194.5 14.2 193 28.3
2004-05-04 08:50:06 51°14.38 2°26.744 194.2 14.2 192 28.2
2004-05-04 08:50:12 51°14.357 2°26.735 194.3 14.3 193 28.3
2004-05-04 08:50:17 51°14.337 2°26.728 194.9 14.3 193 28.5
2004-05-04 08:50:22 51°14.318 2°26.721 194.7 14.2 193 28.3
2004-05-04 08:50:26 51°14.303 2°26.715 194.5 14.2 193 28.5
2004-05-04 08:50:32 51°14.28 2°26.707 193.9 14.2 193 28.4
2004-05-04 08:50:37 51°14.26 2°26.7 194.5 14.2 193 28.5
2004-05-04 08:50:42 51°14.241 2°26.692 194.9 14.1 194 28.4
2004-05-04 08:50:46 51°14.226 2°26.688 195.2 14.2 192 28.5
2004-05-04 08:50:52 51°14.203 2°26.678 194.5 14.3 193 28.4
2004-05-04 08:50:57 51°14.184 2°26.672 194.8 14.2 193 28.3
2004-05-04 08:51:02 51°14.164 2°26.664 194.2 14.2 193 28.5
2004-05-04 08:51:06 51°14.149 2°26.658 194.8 14.2 194 28.5
2004-05-04 08:51:12 51°14.126 2°26.65 194.9 14.3 192 28.2
2004-05-04 08:51:17 51°14.106 2°26.643 194.3 14.2 193 28.1
2004-05-04 08:51:22 51°14.087 2°26.637 194.3 14.2 192 28.1
2004-05-04 08:51:27 51°14.068 2°26.63 194.1 14.2 192 28.1
2004-05-04 08:51:32 51°14.049 2°26.622 194.3 14.2 193 28.2
2004-05-04 08:51:37 51°14.029 2°26.615 194.7 14.3 193 28.3
2004-05-04 08:51:42 51°14.01 2°26.609 194.5 14.2 193 28.1
2004-05-04 08:51:46 51°13.995 2°26.603 194.4 14.2 192 28.1
2004-05-04 08:51:52 51°13.971 2°26.595 194.6 14.2 193 27.9
2004-05-04 08:51:57 51°13.952 2°26.588 194.4 14.3 193 28
2004-05-04 08:52:02 51°13.933 2°26.58 194.5 14.3 193 28
2004-05-04 08:52:06 51°13.917 2°26.575 195 14.3 193 27.8
2004-05-04 08:52:12 51°13.894 2°26.566 194.8 14.2 193 27.9
2004-05-04 08:52:17 51°13.875 2°26.559 194.5 14.2 192 27.7
2004-05-04 08:52:22 51°13.856 2°26.553 193.8 14.2 192 27.8
2004-05-04 08:52:26 51°13.84 2°26.547 193.7 14.2 192 27.8
2004-05-04 08:52:32 51°13.817 2°26.54 194 14.2 192 27.8
2004-05-04 08:52:37 51°13.798 2°26.533 194.3 14.2 193 27.8
2004-05-04 08:52:42 51°13.778 2°26.526 194.6 14.2 192 27.8
2004-05-04 08:52:47 51°13.759 2°26.519 194.5 14.3 193 27.4
2004-05-04 08:52:52 51°13.74 2°26.511 194.5 14.2 193 27.5
2004-05-04 08:52:57 51°13.72 2°26.504 194.9 14.3 193 26.9
2004-05-04 08:53:02 51°13.701 2°26.497 194.5 14.3 193 27.7
2004-05-04 08:53:06 51°13.686 2°26.492 194.8 14.2 193 27.9
2004-05-04 08:53:12 51°13.662 2°26.483 194.2 14.2 192 27.9
2004-05-04 08:53:17 51°13.643 2°26.477 194.6 14.2 192 27.6
2004-05-04 08:53:21 51°13.628 2°26.471 194.4 14.1 193 27.5
2004-05-04 08:53:26 51°13.609 2°26.465 194.4 14.1 192 27.7
2004-05-04 08:53:32 51°13.586 2°26.457 194 14.1 192 27.4
2004-05-04 08:53:37 51°13.567 2°26.45 194.3 14 193 27.6
2004-05-04 08:53:42 51°13.548 2°26.443 194.8 14.1 192 27.4
2004-05-04 08:53:47 51°13.529 2°26.437 194 14.1 192 27.1
2004-05-04 08:53:52 51°13.51 2°26.43 194.3 14.1 192 27.4
2004-05-04 08:53:57 51°13.491 2°26.424 194.5 14.1 192 27.5
2004-05-04 08:54:02 51°13.472 2°26.417 194.3 14.1 192 27.3
2004-05-04 08:54:07 51°13.453 2°26.411 194.2 14.1 193 27.3
2004-05-04 08:54:12 51°13.434 2°26.403 194.1 14.1 192 27.3
2004-05-04 08:54:17 51°13.414 2°26.397 194.1 14.1 192 27.2
2004-05-04 08:54:22 51°13.395 2°26.39 194.2 14.1 192 26.8
2004-05-04 08:54:27 51°13.376 2°26.384 194.3 14.1 193 26.8
2004-05-04 08:54:32 51°13.357 2°26.377 194 14.1 192 26.5
2004-05-04 08:54:37 51°13.338 2°26.37 193.9 14.1 193 26.6
2004-05-04 08:54:42 51°13.319 2°26.364 194.5 14.1 192 27
2004-05-04 08:54:46 51°13.304 2°26.358 194.6 14.1 193 27.2
2004-05-04 08:54:52 51°13.281 2°26.351 194.1 14.1 192 27.7
2004-05-04 08:54:57 51°13.262 2°26.344 193.9 14.1 193 27.1
2004-05-04 08:55:02 51°13.243 2°26.337 194.5 14.1 193 27
2004-05-04 08:55:06 51°13.228 2°26.331 194.5 14.1 193 27.3
2004-05-04 08:55:12 51°13.205 2°26.323 194.3 14.2 192 27.3
2004-05-04 08:55:17 51°13.185 2°26.316 194.5 14.2 192 27.4
2004-05-04 08:55:22 51°13.166 2°26.31 194.1 14.1 192 27.4
2004-05-04 08:55:27 51°13.147 2°26.303 194.1 14.1 192 27.2
2004-05-04 08:55:32 51°13.128 2°26.296 194.2 14.1 193 27
2004-05-04 08:55:37 51°13.109 2°26.289 194.3 14.1 193 26.6
2004-05-04 08:55:41 51°13.093 2°26.285 194.5 14.1 192 26.8
2004-05-04 08:55:46 51°13.074 2°26.278 193.9 14.1 191 26.9
2004-05-04 08:55:52 51°13.052 2°26.27 193.8 14.1 193 26.8
2004-05-04 08:55:57 51°13.033 2°26.263 194.5 14.1 193 26.4
2004-05-04 08:56:02 51°13.014 2°26.256 194.5 14.1 193 26.3
2004-05-04 08:56:06 51°12.999 2°26.251 194.6 14 192 26.5
2004-05-04 08:56:12 51°12.975 2°26.243 194.2 14.1 192 26.2
2004-05-04 08:56:17 51°12.956 2°26.236 194.6 14.1 192 25.7
2004-05-04 08:56:22 51°12.937 2°26.23 194.5 14.1 192 25.8
2004-05-04 08:56:26 51°12.922 2°26.224 193.8 14.1 192 26
2004-05-04 08:56:32 51°12.899 2°26.217 194 14.1 192 26.2
2004-05-04 08:56:37 51°12.88 2°26.21 194.6 14.1 192 26.2
2004-05-04 08:56:42 51°12.861 2°26.203 194.3 14.1 193 26.3
2004-05-04 08:56:47 51°12.842 2°26.196 194.6 14.1 192 26.5
2004-05-04 08:56:52 51°12.822 2°26.19 194.4 14.1 191 26.4
2004-05-04 08:56:57 51°12.803 2°26.183 193.8 14.1 193 26.1
2004-05-04 08:57:02 51°12.784 2°26.177 194.3 14.1 192 26.4
2004-05-04 08:57:07 51°12.765 2°26.17 194.7 14.1 192 26
2004-05-04 08:57:12 51°12.746 2°26.163 193.9 14.1 192 25.8
2004-05-04 08:57:16 51°12.731 2°26.158 194.5 14.1 192 25.8
2004-05-04 08:57:21 51°12.711 2°26.151 194.4 14.1 192 26.1
2004-05-04 08:57:26 51°12.693 2°26.145 194.5 14.1 192 26
2004-05-04 08:57:32 51°12.67 2°26.136 194.1 14.1 192 25.9
2004-05-04 08:57:37 51°12.65 2°26.13 194.5 14.2 192 25.8
2004-05-04 08:57:42 51°12.631 2°26.123 194.5 14.2 193 26.3
2004-05-04 08:57:47 51°12.612 2°26.117 194.5 14.1 191 26
2004-05-04 08:57:52 51°12.593 2°26.11 194 14.1 193 26
2004-05-04 08:57:57 51°12.574 2°26.104 194.2 14.1 192 26.1
2004-05-04 08:58:02 51°12.555 2°26.097 194.5 14.1 193 26.2
2004-05-04 08:58:07 51°12.536 2°26.091 194.7 14.1 191 26.2
2004-05-04 08:58:12 51°12.516 2°26.084 194.1 14.1 192 26.1
2004-05-04 08:58:16 51°12.501 2°26.079 194.3 14.1 193 26.4
2004-05-04 08:58:21 51°12.482 2°26.072 194.7 14.1 192 26.3
2004-05-04 08:58:27 51°12.459 2°26.065 194.2 14.1 192 26.4
2004-05-04 08:58:32 51°12.439 2°26.058 194 14 191 26.5
2004-05-04 08:58:37 51°12.42 2°26.052 194.4 14 191 26.1
2004-05-04 08:58:42 51°12.401 2°26.045 194.1 14.1 193 26.3
2004-05-04 08:58:47 51°12.382 2°26.039 194.5 14 192 26.4
2004-05-04 08:58:52 51°12.363 2°26.033 194.4 14 192 26.2
2004-05-04 08:58:56 51°12.348 2°26.027 194.5 14 192 26.3
2004-05-04 08:59:02 51°12.325 2°26.019 194.5 14.1 192 26.2
2004-05-04 08:59:06 51°12.31 2°26.015 194.4 14 192 26.6
2004-05-04 08:59:12 51°12.288 2°26.008 194.1 14 191 26.4
2004-05-04 08:59:16 51°12.273 2°26.003 193.6 13.9 191 26.3
2004-05-04 08:59:22 51°12.25 2°25.995 193.8 13.9 192 26
2004-05-04 08:59:26 51°12.235 2°25.991 193.7 14 191 26.3
2004-05-04 08:59:32 51°12.212 2°25.983 194.3 13.9 192 26.2
2004-05-04 08:59:37 51°12.193 2°25.977 194.1 13.9 191 26.5
2004-05-04 08:59:42 51°12.174 2°25.972 193.8 13.9 191 26
2004-05-04 08:59:47 51°12.156 2°25.966 193.9 13.7 190 25.8
2004-05-04 08:59:52 51°12.137 2°25.96 194 13.7 191 25.6
2004-05-04 08:59:56 51°12.122 2°25.956 194.5 13.8 191 25.2
2004-05-04 09:00:02 51°12.099 2°25.948 194.5 13.8 192 24.9
2004-05-04 09:00:05 51°12.088 2°25.944 194.4 13.8 192 25
2004-05-04 09:00:12 51°12.062 2°25.936 194.2 13.8 192 24.9
2004-05-04 09:00:17 51°12.043 2°25.93 193.9 13.8 191 25.2
2004-05-04 09:00:22 51°12.024 2°25.924 193.8 13.8 191 25.3
2004-05-04 09:00:25 51°12.013 2°25.921 194.2 13.8 191 25.4
2004-05-04 09:00:32 51°11.987 2°25.913 194.2 13.7 191 25.1
2004-05-04 09:00:36 51°11.972 2°25.908 194.3 13.7 191 25.3
2004-05-04 09:00:42 51°11.949 2°25.901 194.5 13.7 191 25.3
2004-05-04 09:00:47 51°11.931 2°25.895 194.7 13.7 191 25.7
2004-05-04 09:00:52 51°11.912 2°25.89 194.2 13.7 190 25.3
2004-05-04 09:00:57 51°11.894 2°25.884 194.4 13.6 191 25
2004-05-04 09:01:02 51°11.875 2°25.879 194.5 13.6 190 24.7
2004-05-04 09:01:06 51°11.86 2°25.874 194 13.7 191 25.5
2004-05-04 09:01:12 51°11.838 2°25.868 194.5 13.6 191 25.2
2004-05-04 09:01:17 51°11.819 2°25.862 194.5 13.7 191 24
2004-05-04 09:01:22 51°11.8 2°25.857 194.5 13.6 190 24.9
2004-05-04 09:01:26 51°11.785 2°25.853 194.1 13.7 191 23.8
2004-05-04 09:01:32 51°11.763 2°25.846 194.3 13.7 191 22.9
2004-05-04 09:01:37 51°11.744 2°25.84 194.3 13.7 191 23.3
2004-05-04 09:01:42 51°11.726 2°25.834 194.6 13.7 191 22.9
2004-05-04 09:01:47 51°11.707 2°25.828 194.6 13.8 191 23.1
2004-05-04 09:01:52 51°11.688 2°25.823 194.7 13.9 190 23.3
2004-05-04 09:01:57 51°11.669 2°25.817 193.9 13.8 191 22.4
2004-05-04 09:02:02 51°11.65 2°25.811 194.2 13.8 191 22
2004-05-04 09:02:07 51°11.631 2°25.806 194.6 13.8 191 20.7
2004-05-04 09:02:12 51°11.613 2°25.8 194.1 13.8 190 22.4
2004-05-04 09:02:16 51°11.598 2°25.796 194.3 13.7 190 21.1
2004-05-04 09:02:22 51°11.575 2°25.79 194.4 13.8 190 21.3
2004-05-04 09:02:27 51°11.556 2°25.785 194.2 13.8 190 21.7
2004-05-04 09:02:32 51°11.537 2°25.779 193.9 13.7 190 20.6
2004-05-04 09:02:36 51°11.523 2°25.775 194.5 13.6 189 21.3
2004-05-04 09:02:42 51°11.5 2°25.769 194.2 13.6 189 20.4
2004-05-04 09:02:47 51°11.482 2°25.764 193.7 13.6 189 19.2
2004-05-04 09:02:52 51°11.463 2°25.759 194.1 13.5 190 17.5
2004-05-04 09:02:56 51°11.448 2°25.755 194.3 13.5 189 17.5
2004-05-04 09:03:02 51°11.426 2°25.749 193.7 13.5 191 18
2004-05-04 09:03:06 51°11.411 2°25.745 194.7 13.5 190 18.9
2004-05-04 09:03:12 51°11.389 2°25.739 194.3 13.6 189 18.6
2004-05-04 09:03:16 51°11.374 2°25.735 194.5 13.5 189 17.6
2004-05-04 09:03:22 51°11.352 2°25.729 194.4 13.5 190 17.1
2004-05-04 09:03:26 51°11.337 2°25.726 194.3 13.5 189 17.6
2004-05-04 09:03:38 51°11.293 2°25.715 194.7 13.5 188 16.4
2004-05-04 09:03:43 51°11.274 2°25.71 194 13.5 188 16
2004-05-04 09:03:48 51°11.255 2°25.71 193.3 13.4 180 14.9
2004-05-04 09:03:53 51°11.237 2°25.711 187.1 13.4 177 13.7
2004-05-04 09:03:58 51°11.218 2°25.715 183.3 13.4 174 13.2
2004-05-04 09:04:02 51°11.204 2°25.718 178.9 13.5 171 12.7
2004-05-04 09:04:08 51°11.182 2°25.725 176.8 13.4 170 13.3
2004-05-04 09:04:13 51°11.164 2°25.733 175.4 13.5 165 13.6
2004-05-04 09:04:18 51°11.146 2°25.742 171.2 13.6 163 13.6
2004-05-04 09:04:22 51°11.131 2°25.75 167.2 13.7 160 14.2
2004-05-04 09:04:28 51°11.11 2°25.764 165 13.7 158 14.3
2004-05-04 09:04:32 51°11.097 2°25.774 162.5 13.7 156 14.7
2004-05-04 09:04:38 51°11.076 2°25.79 162 13.6 155 15
2004-05-04 09:04:42 51°11.063 2°25.802 160.4 13.6 152 15.4
2004-05-04 09:04:48 51°11.044 2°25.823 155.1 13.8 145 15.9
2004-05-04 09:04:53 51°11.028 2°25.841 150.8 13.9 143 16.2
2004-05-04 09:04:58 51°11.013 2°25.86 147.4 13.9 141 16.7
2004-05-04 09:05:02 51°11.002 2°25.876 147.3 13.7 141 17.2
2004-05-04 09:05:08 51°10.986 2°25.903 144.3 13.8 136 17.4
2004-05-04 09:05:13 51°10.972 2°25.925 140.3 13.9 133 17.8
2004-05-04 09:05:18 51°10.961 2°25.949 137.1 13.9 127 18.2
2004-05-04 09:05:20 51°10.956 2°25.959 134.5 14 128 18.2
2004-05-04 09:05:28 51°10.937 2°25.998 133.4 13.9 128 18.6
2004-05-04 09:05:33 51°10.927 2°26.025 132.6 14 122 18.9
2004-05-04 09:05:38 51°10.915 2°26.05 130.5 13.9 125 19.3
2004-05-04 09:05:43 51°10.906 2°26.076 129.9 14 122 19.5
2004-05-04 09:05:48 51°10.897 2°26.104 126.2 13.8 116 19.7
2004-05-04 09:05:53 51°10.89 2°26.132 123.1 13.8 112 19.9
2004-05-04 09:05:58 51°10.884 2°26.161 117.7 13.9 109 20.2
2004-05-04 09:06:02 51°10.88 2°26.185 113.4 14 106 20.4
2004-05-04 09:06:08 51°10.876 2°26.222 109.6 14.1 102 20.6
2004-05-04 09:06:13 51°10.873 2°26.252 106.6 13.9 99 20.7
2004-05-04 09:06:18 51°10.871 2°26.283 104.2 14 96 21
2004-05-04 09:06:22 51°10.869 2°26.308 102.5 14 98 21.1
2004-05-04 09:06:28 51°10.867 2°26.345 101.8 14.1 94 20.9
2004-05-04 09:06:33 51°10.865 2°26.376 100.2 14.1 94 21.1
2004-05-04 09:06:38 51°10.866 2°26.408 97.1 14.2 89 21.3
2004-05-04 09:06:43 51°10.867 2°26.439 93.3 14.2 87 21.3
2004-05-04 09:06:48 51°10.869 2°26.47 90.9 14.2 86 21.1
2004-05-04 09:06:53 51°10.872 2°26.501 88.4 14.2 82 21.1
2004-05-04 09:06:58 51°10.875 2°26.532 86.2 14.1 80 21.2
2004-05-04 09:07:02 51°10.878 2°26.556 84.7 14 80 21.5
2004-05-04 09:07:08 51°10.883 2°26.593 83.9 14.1 79 21.8
2004-05-04 09:07:13 51°10.887 2°26.623 83.3 14.2 78 21.5
2004-05-04 09:07:18 51°10.891 2°26.654 83 14 79 21.6
2004-05-04 09:07:22 51°10.894 2°26.678 83 13.9 79 22.2
2004-05-04 09:07:28 51°10.898 2°26.713 82.7 13.8 78 22
2004-05-04 09:07:33 51°10.902 2°26.743 83.8 13.9 78 21.8
2004-05-04 09:07:38 51°10.906 2°26.773 82.4 13.9 78 21.8
2004-05-04 09:07:42 51°10.909 2°26.797 82.3 13.8 78 21.8
2004-05-04 09:07:48 51°10.914 2°26.834 83.2 13.9 80 21.8
2004-05-04 09:07:53 51°10.917 2°26.864 83.4 14.1 79 21.8
2004-05-04 09:07:58 51°10.921 2°26.895 83.4 14.1 78 21.8
2004-05-04 09:08:02 51°10.924 2°26.919 82.9 14.1 79 22.2
2004-05-04 09:08:08 51°10.929 2°26.956 83 14.1 78 21.7
2004-05-04 09:08:13 51°10.932 2°26.987 82.8 14.2 80 21.8
2004-05-04 09:08:18 51°10.936 2°27.018 83.4 14.2 79 21.8
2004-05-04 09:08:22 51°10.939 2°27.042 83.9 14.3 80 21.9
2004-05-04 09:08:28 51°10.943 2°27.08 83.9 14.2 80 22.3
2004-05-04 09:08:32 51°10.946 2°27.104 84 14.4 79 22.1
2004-05-04 09:08:38 51°10.95 2°27.141 83.5 14.3 80 22.2
2004-05-04 09:08:42 51°10.953 2°27.166 83.7 14.1 80 21.9
2004-05-04 09:08:48 51°10.957 2°27.202 84.5 14 80 21.8
2004-05-04 09:08:53 51°10.962 2°27.232 84.1 14 78 21.6
2004-05-04 09:08:58 51°10.965 2°27.262 82.7 13.9 78 22
2004-05-04 09:09:02 51°10.969 2°27.286 82.2 13.8 77 21.8
2004-05-04 09:09:08 51°10.974 2°27.321 81.2 13.6 76 22
2004-05-04 09:09:13 51°10.978 2°27.35 80.9 13.5 76 21.9
2004-05-04 09:09:18 51°10.983 2°27.379 80.6 13.6 76 22
2004-05-04 09:09:21 51°10.986 2°27.396 79.4 13.7 75 22
2004-05-04 09:09:28 51°10.992 2°27.437 79.5 13.7 76 21.6
2004-05-04 09:09:33 51°10.997 2°27.466 80 13.7 76 21.6
2004-05-04 09:09:36 51°11 2°27.484 80.4 13.7 77 21.6
2004-05-04 09:09:41 51°11.004 2°27.513 80.7 13.6 77 21.6